sensor_id;sensor_type;location;lat;lon;timestamp;temperature;humidity
23723;DHT22;12042;52.136;5.584;2023-02-01T06:59:50;6.90;99.90
23723;DHT22;12042;52.136;5.584;2023-02-01T07:02:15;6.90;99.90
23723;DHT22;12042;52.136;5.584;2023-02-01T07:04:41;6.90;99.90
23723;DHT22;12042;52.136;5.584;2023-02-01T07:07:06;6.90;99.90
23723;DHT22;12042;52.136;5.584;2023-02-01T07:09:32;6.90;99.90
23723;DHT22;12042;52.136;5.584;2023-02-01T07:11:57;6.90;99.90
23723;DHT22;12042;52.136;5.584;2023-02-01T07:14:23;6.90;99.90
23723;DHT22;12042;52.136;5.584;2023-02-01T07:16:49;6.80;99.90
23723;DHT22;12042;52.136;5.584;2023-02-01T07:19:14;6.90;99.90
23723;DHT22;12042;52.136;5.584;2023-02-01T07:21:40;6.80;99.90
23723;DHT22;12042;52.136;5.584;2023-02-01T07:24:05;6.80;99.90
23723;DHT22;12042;52.136;5.584;2023-02-01T07:26:31;6.80;99.90
23723;DHT22;12042;52.136;5.584;2023-02-01T07:28:57;6.80;99.90
23723;DHT22;12042;52.136;5.584;2023-02-01T07:31:23;6.80;99.90
23723;DHT22;12042;52.136;5.584;2023-02-01T07:33:50;6.80;99.90
23723;DHT22;12042;52.136;5.584;2023-02-01T07:36:20;6.80;99.90
23723;DHT22;12042;52.136;5.584;2023-02-01T07:38:46;6.80;99.90
23723;DHT22;12042;52.136;5.584;2023-02-01T07:41:16;6.80;99.90
23723;DHT22;12042;52.136;5.584;2023-02-01T07:43:41;6.80;99.90
23723;DHT22;12042;52.136;5.584;2023-02-01T07:46:09;6.80;99.90
23723;DHT22;12042;52.136;5.584;2023-02-01T07:48:35;6.80;99.90
23723;DHT22;12042;52.136;5.584;2023-02-01T07:51:07;6.90;99.90
23723;DHT22;12042;52.136;5.584;2023-02-01T07:53:34;6.90;99.90
23723;DHT22;12042;52.136;5.584;2023-02-01T07:56:00;6.90;99.90
23723;DHT22;12042;52.136;5.584;2023-02-01T07:58:26;6.90;99.90
23723;DHT22;12042;52.136;5.584;2023-02-01T08:00:52;6.90;99.90
23723;DHT22;12042;52.136;5.584;2023-02-01T08:03:37;6.90;99.90
23723;DHT22;12042;52.136;5.584;2023-02-01T08:06:03;6.90;99.90
23723;DHT22;12042;52.136;5.584;2023-02-01T08:08:28;7.00;99.90
23723;DHT22;12042;52.136;5.584;2023-02-01T08:11:00;7.00;99.90
23723;DHT22;12042;52.136;5.584;2023-02-01T08:13:28;7.00;99.90
23723;DHT22;12042;52.136;5.584;2023-02-01T08:15:59;7.00;99.90
23723;DHT22;12042;52.136;5.584;2023-02-01T08:18:25;7.00;99.90
23723;DHT22;12042;52.136;5.584;2023-02-01T08:20:53;7.00;99.90
23723;DHT22;12042;52.136;5.584;2023-02-01T08:23:19;7.00;99.90
23723;DHT22;12042;52.136;5.584;2023-02-01T08:25:45;7.00;99.90
23723;DHT22;12042;52.136;5.584;2023-02-01T08:28:11;7.10;99.90
23723;DHT22;12042;52.136;5.584;2023-02-01T08:30:38;7.10;99.90
23723;DHT22;12042;52.136;5.584;2023-02-01T08:33:05;7.10;99.90
23723;DHT22;12042;52.136;5.584;2023-02-01T08:35:33;7.20;99.90
23723;DHT22;12042;52.136;5.584;2023-02-01T08:37:59;7.30;99.90
23723;DHT22;12042;52.136;5.584;2023-02-01T08:40:27;7.30;99.90
23723;DHT22;12042;52.136;5.584;2023-02-01T08:42:56;7.30;99.90
23723;DHT22;12042;52.136;5.584;2023-02-01T08:45:25;7.30;99.90
23723;DHT22;12042;52.136;5.584;2023-02-01T08:47:51;7.30;99.90
23723;DHT22;12042;52.136;5.584;2023-02-01T08:50:18;7.40;99.90
23723;DHT22;12042;52.136;5.584;2023-02-01T08:52:44;7.30;99.90
23723;DHT22;12042;52.136;5.584;2023-02-01T08:55:12;7.30;99.90
23723;DHT22;12042;52.136;5.584;2023-02-01T08:57:38;7.30;99.90
23723;DHT22;12042;52.136;5.584;2023-02-01T09:00:06;7.30;99.90
23723;DHT22;12042;52.136;5.584;2023-02-01T09:02:33;7.40;99.90
23723;DHT22;12042;52.136;5.584;2023-02-01T09:05:03;7.40;99.90
23723;DHT22;12042;52.136;5.584;2023-02-01T09:07:30;7.40;99.90
23723;DHT22;12042;52.136;5.584;2023-02-01T09:09:56;7.40;99.90
23723;DHT22;12042;52.136;5.584;2023-02-01T09:12:25;7.50;99.90
23723;DHT22;12042;52.136;5.584;2023-02-01T09:14:51;7.40;99.90
23723;DHT22;12042;52.136;5.584;2023-02-01T09:17:17;7.50;99.90
23723;DHT22;12042;52.136;5.584;2023-02-01T09:19:42;7.50;99.90
23723;DHT22;12042;52.136;5.584;2023-02-01T09:22:08;7.70;99.90
23723;DHT22;12042;52.136;5.584;2023-02-01T09:24:34;7.80;99.90
23723;DHT22;12042;52.136;5.584;2023-02-01T09:26:59;7.90;99.90
23723;DHT22;12042;52.136;5.584;2023-02-01T09:29:25;8.00;99.90
23723;DHT22;12042;52.136;5.584;2023-02-01T09:31:51;8.00;99.90
23723;DHT22;12042;52.136;5.584;2023-02-01T09:34:16;8.00;99.90
23723;DHT22;12042;52.136;5.584;2023-02-01T09:36:42;8.00;99.90
23723;DHT22;12042;52.136;5.584;2023-02-01T09:39:07;8.10;99.90
23723;DHT22;12042;52.136;5.584;2023-02-01T09:44:56;8.00;99.90
23723;DHT22;12042;52.136;5.584;2023-02-01T09:47:23;8.00;99.90
23723;DHT22;12042;52.136;5.584;2023-02-01T09:50:10;8.00;99.90
23723;DHT22;12042;52.136;5.584;2023-02-01T09:52:42;8.00;99.90
23723;DHT22;12042;52.136;5.584;2023-02-01T09:55:19;8.00;99.90
23723;DHT22;12042;52.136;5.584;2023-02-01T09:58:01;8.00;99.90
23723;DHT22;12042;52.136;5.584;2023-02-01T10:00:33;7.90;99.90
23723;DHT22;12042;52.136;5.584;2023-02-01T10:02:59;7.90;99.90
23723;DHT22;12042;52.136;5.584;2023-02-01T10:05:57;7.90;99.90
23723;DHT22;12042;52.136;5.584;2023-02-01T10:09:02;7.90;99.90
23723;DHT22;12042;52.136;5.584;2023-02-01T10:14:46;7.90;99.90
23723;DHT22;12042;52.136;5.584;2023-02-01T10:18:11;7.90;99.90
23723;DHT22;12042;52.136;5.584;2023-02-01T10:21:37;7.80;99.90
23723;DHT22;12042;52.136;5.584;2023-02-01T10:23:57;7.80;99.90
23723;DHT22;12042;52.136;5.584;2023-02-01T10:26:33;7.70;99.90
23723;DHT22;12042;52.136;5.584;2023-02-01T10:29:02;7.70;99.90
23723;DHT22;12042;52.136;5.584;2023-02-01T10:31:31;7.70;99.90
23723;DHT22;12042;52.136;5.584;2023-02-01T10:33:59;7.60;99.90
23723;DHT22;12042;52.136;5.584;2023-02-01T10:36:48;7.50;99.90
23723;DHT22;12042;52.136;5.584;2023-02-01T10:39:15;7.50;99.90
23723;DHT22;12042;52.136;5.584;2023-02-01T10:41:41;7.40;99.90
23723;DHT22;12042;52.136;5.584;2023-02-01T10:44:15;7.30;99.90
23723;DHT22;12042;52.136;5.584;2023-02-01T10:46:42;7.30;99.90
23723;DHT22;12042;52.136;5.584;2023-02-01T10:49:13;7.30;99.90
23723;DHT22;12042;52.136;5.584;2023-02-01T10:52:33;7.30;99.90
23723;DHT22;12042;52.136;5.584;2023-02-01T10:54:50;7.30;99.90
23723;DHT22;12042;52.136;5.584;2023-02-01T10:57:23;7.30;99.90
23723;DHT22;12042;52.136;5.584;2023-02-01T10:59:55;7.40;99.90
23723;DHT22;12042;52.136;5.584;2023-02-01T11:02:33;7.40;99.90
23723;DHT22;12042;52.136;5.584;2023-02-01T11:05:05;7.40;99.90
23723;DHT22;12042;52.136;5.584;2023-02-01T11:07:34;7.40;99.90
23723;DHT22;12042;52.136;5.584;2023-02-01T11:10:00;7.50;99.90
23723;DHT22;12042;52.136;5.584;2023-02-01T11:12:36;7.60;99.90
23723;DHT22;12042;52.136;5.584;2023-02-01T11:17:41;7.70;99.90
23723;DHT22;12042;52.136;5.584;2023-02-01T11:22:57;7.70;99.90
23723;DHT22;12042;52.136;5.584;2023-02-01T11:25:23;7.80;99.90
23723;DHT22;12042;52.136;5.584;2023-02-01T11:27:51;7.80;99.90
23723;DHT22;12042;52.136;5.584;2023-02-01T11:30:27;7.80;99.90
23723;DHT22;12042;52.136;5.584;2023-02-01T11:32:56;7.80;99.90
23723;DHT22;12042;52.136;5.584;2023-02-01T11:35:22;7.80;99.90
23723;DHT22;12042;52.136;5.584;2023-02-01T11:37:57;7.90;99.90
23723;DHT22;12042;52.136;5.584;2023-02-01T11:40:35;7.90;99.90
23723;DHT22;12042;52.136;5.584;2023-02-01T11:43:23;7.90;99.90
23723;DHT22;12042;52.136;5.584;2023-02-01T11:45:55;8.00;99.90
23723;DHT22;12042;52.136;5.584;2023-02-01T11:48:24;8.00;99.90
23723;DHT22;12042;52.136;5.584;2023-02-01T11:51:08;8.00;99.90
23723;DHT22;12042;52.136;5.584;2023-02-01T11:56:54;8.20;99.90
23723;DHT22;12042;52.136;5.584;2023-02-01T12:08:01;8.30;99.90
23723;DHT22;12042;52.136;5.584;2023-02-01T12:10:43;8.30;99.90
23723;DHT22;12042;52.136;5.584;2023-02-01T12:21:48;8.40;99.90
23723;DHT22;12042;52.136;5.584;2023-02-01T12:24:46;8.40;99.90
23723;DHT22;12042;52.136;5.584;2023-02-01T12:38:57;8.60;99.90
23723;DHT22;12042;52.136;5.584;2023-02-01T12:47:50;8.50;99.90
23723;DHT22;12042;52.136;5.584;2023-02-01T12:50:28;8.50;99.90
23723;DHT22;12042;52.136;5.584;2023-02-01T12:53:24;8.50;99.90
23723;DHT22;12042;52.136;5.584;2023-02-01T12:55:54;8.50;99.90
23723;DHT22;12042;52.136;5.584;2023-02-01T12:58:32;8.50;99.90
23723;DHT22;12042;52.136;5.584;2023-02-01T13:01:08;8.50;99.90
23723;DHT22;12042;52.136;5.584;2023-02-01T13:03:40;8.50;99.90
23723;DHT22;12042;52.136;5.584;2023-02-01T13:06:19;8.40;99.90
23723;DHT22;12042;52.136;5.584;2023-02-01T13:11:31;8.40;99.90
23723;DHT22;12042;52.136;5.584;2023-02-01T13:14:23;8.40;99.90
23723;DHT22;12042;52.136;5.584;2023-02-01T13:17:02;8.40;99.90
23723;DHT22;12042;52.136;5.584;2023-02-01T13:22:36;8.40;99.90
23723;DHT22;12042;52.136;5.584;2023-02-01T13:27:35;8.40;99.90
23723;DHT22;12042;52.136;5.584;2023-02-01T13:30:30;8.40;99.90
23723;DHT22;12042;52.136;5.584;2023-02-01T13:33:26;8.50;99.90
23723;DHT22;12042;52.136;5.584;2023-02-01T13:41:42;8.40;99.90
23723;DHT22;12042;52.136;5.584;2023-02-01T13:49:57;8.40;99.90
23723;DHT22;12042;52.136;5.584;2023-02-01T13:52:37;8.40;99.90
23723;DHT22;12042;52.136;5.584;2023-02-01T13:57:52;8.50;99.90
23723;DHT22;12042;52.136;5.584;2023-02-01T14:00:34;8.50;99.90
23723;DHT22;12042;52.136;5.584;2023-02-01T14:13:38;8.60;99.90
23723;DHT22;12042;52.136;5.584;2023-02-01T14:21:32;8.60;99.90
23723;DHT22;12042;52.136;5.584;2023-02-01T14:34:59;8.60;99.90
23723;DHT22;12042;52.136;5.584;2023-02-01T14:37:29;8.60;99.90
23723;DHT22;12042;52.136;5.584;2023-02-01T14:40:16;8.60;99.90
23723;DHT22;12042;52.136;5.584;2023-02-01T14:53:16;8.60;99.90
23723;DHT22;12042;52.136;5.584;2023-02-01T15:06:40;8.60;99.90
23723;DHT22;12042;52.136;5.584;2023-02-01T15:09:34;8.50;99.90
23723;DHT22;12042;52.136;5.584;2023-02-01T15:14:46;7.90;99.90
23723;DHT22;12042;52.136;5.584;2023-02-01T15:17:26;7.70;99.90
23723;DHT22;12042;52.136;5.584;2023-02-01T15:19:57;7.50;99.90
23723;DHT22;12042;52.136;5.584;2023-02-01T15:22:24;7.40;99.90
23723;DHT22;12042;52.136;5.584;2023-02-01T15:24:57;7.40;99.90
23723;DHT22;12042;52.136;5.584;2023-02-01T15:27:24;7.30;99.90
23723;DHT22;12042;52.136;5.584;2023-02-01T15:29:50;7.30;99.90
23723;DHT22;12042;52.136;5.584;2023-02-01T15:32:33;7.40;99.90
23723;DHT22;12042;52.136;5.584;2023-02-01T15:35:00;7.40;99.90
23723;DHT22;12042;52.136;5.584;2023-02-01T15:37:27;7.40;99.90
23723;DHT22;12042;52.136;5.584;2023-02-01T15:40:19;7.50;99.90
23723;DHT22;12042;52.136;5.584;2023-02-01T15:42:55;7.60;99.90
23723;DHT22;12042;52.136;5.584;2023-02-01T15:45:26;7.80;99.90
23723;DHT22;12042;52.136;5.584;2023-02-01T15:47:53;7.90;99.90
23723;DHT22;12042;52.136;5.584;2023-02-01T15:50:20;8.00;99.90
23723;DHT22;12042;52.136;5.584;2023-02-01T15:52:51;8.10;99.90
23723;DHT22;12042;52.136;5.584;2023-02-01T15:55:35;8.20;99.90
23723;DHT22;12042;52.136;5.584;2023-02-01T15:58:20;8.20;99.90
23723;DHT22;12042;52.136;5.584;2023-02-01T16:01:04;8.20;99.90
23723;DHT22;12042;52.136;5.584;2023-02-01T16:03:39;8.30;99.90
23723;DHT22;12042;52.136;5.584;2023-02-01T16:06:12;8.30;99.90
23723;DHT22;12042;52.136;5.584;2023-02-01T16:11:41;8.30;99.90
23723;DHT22;12042;52.136;5.584;2023-02-01T16:14:07;8.30;99.90
23723;DHT22;12042;52.136;5.584;2023-02-01T16:16:32;8.40;99.90
23723;DHT22;12042;52.136;5.584;2023-02-01T16:18:58;8.30;99.90
23723;DHT22;12042;52.136;5.584;2023-02-01T16:21:24;8.40;99.90
23723;DHT22;12042;52.136;5.584;2023-02-01T16:23:53;8.40;99.90
23723;DHT22;12042;52.136;5.584;2023-02-01T16:26:20;8.40;99.90
23723;DHT22;12042;52.136;5.584;2023-02-01T16:28:46;8.40;99.90
23723;DHT22;12042;52.136;5.584;2023-02-01T16:31:14;8.40;99.90
23723;DHT22;12042;52.136;5.584;2023-02-01T16:33:50;8.50;99.90
23723;DHT22;12042;52.136;5.584;2023-02-01T16:36:16;8.50;99.90
23723;DHT22;12042;52.136;5.584;2023-02-01T16:38:43;8.50;99.90
23723;DHT22;12042;52.136;5.584;2023-02-01T16:41:13;8.50;99.90
23723;DHT22;12042;52.136;5.584;2023-02-01T16:43:39;8.50;99.90
23723;DHT22;12042;52.136;5.584;2023-02-01T16:46:15;8.50;99.90
23723;DHT22;12042;52.136;5.584;2023-02-01T16:48:43;8.50;99.90
23723;DHT22;12042;52.136;5.584;2023-02-01T16:51:13;8.50;99.90
23723;DHT22;12042;52.136;5.584;2023-02-01T16:53:42;8.60;99.90
23723;DHT22;12042;52.136;5.584;2023-02-01T16:56:23;8.50;99.90
23723;DHT22;12042;52.136;5.584;2023-02-01T16:58:50;8.60;99.90
23723;DHT22;12042;52.136;5.584;2023-02-01T17:01:17;8.60;99.90
23723;DHT22;12042;52.136;5.584;2023-02-01T17:03:44;8.60;99.90
23723;DHT22;12042;52.136;5.584;2023-02-01T17:06:13;8.50;99.90
23723;DHT22;12042;52.136;5.584;2023-02-01T17:08:42;8.60;99.90
23723;DHT22;12042;52.136;5.584;2023-02-01T17:11:09;8.60;99.90
23723;DHT22;12042;52.136;5.584;2023-02-01T17:13:36;8.60;99.90
23723;DHT22;12042;52.136;5.584;2023-02-01T17:16:29;8.60;99.90
23723;DHT22;12042;52.136;5.584;2023-02-01T17:19:04;8.60;99.90
23723;DHT22;12042;52.136;5.584;2023-02-01T17:21:38;8.60;99.90
23723;DHT22;12042;52.136;5.584;2023-02-01T17:24:05;8.60;99.90
23723;DHT22;12042;52.136;5.584;2023-02-01T17:26:30;8.60;99.90
23723;DHT22;12042;52.136;5.584;2023-02-01T17:28:56;8.60;99.90
23723;DHT22;12042;52.136;5.584;2023-02-01T17:31:22;8.60;99.90
23723;DHT22;12042;52.136;5.584;2023-02-01T17:33:48;8.60;99.90
23723;DHT22;12042;52.136;5.584;2023-02-01T17:36:16;8.60;99.90
23723;DHT22;12042;52.136;5.584;2023-02-01T17:38:43;8.60;99.90
23723;DHT22;12042;52.136;5.584;2023-02-01T17:41:12;8.60;99.90
23723;DHT22;12042;52.136;5.584;2023-02-01T17:43:38;8.60;99.90
23723;DHT22;12042;52.136;5.584;2023-02-01T17:46:13;8.60;99.90
23723;DHT22;12042;52.136;5.584;2023-02-01T17:48:39;8.60;99.90
23723;DHT22;12042;52.136;5.584;2023-02-01T17:51:11;8.60;99.90
23723;DHT22;12042;52.136;5.584;2023-02-01T17:53:48;8.70;99.90
23723;DHT22;12042;52.136;5.584;2023-02-01T17:56:21;8.70;99.90
23723;DHT22;12042;52.136;5.584;2023-02-01T17:58:53;8.70;99.90
23723;DHT22;12042;52.136;5.584;2023-02-01T18:01:23;8.70;99.90
23723;DHT22;12042;52.136;5.584;2023-02-01T18:03:50;8.70;99.90
23723;DHT22;12042;52.136;5.584;2023-02-01T18:06:21;8.70;99.90
23723;DHT22;12042;52.136;5.584;2023-02-01T18:08:48;8.70;99.90
23723;DHT22;12042;52.136;5.584;2023-02-01T18:11:19;8.60;99.90
23723;DHT22;12042;52.136;5.584;2023-02-01T18:13:46;8.60;99.90
23723;DHT22;12042;52.136;5.584;2023-02-01T18:16:23;8.50;99.90
23723;DHT22;12042;52.136;5.584;2023-02-01T18:18:49;8.40;99.90
23723;DHT22;12042;52.136;5.584;2023-02-01T18:21:20;8.20;99.90
23723;DHT22;12042;52.136;5.584;2023-02-01T18:23:47;7.80;99.90
23723;DHT22;12042;52.136;5.584;2023-02-01T18:26:15;7.40;99.90
23723;DHT22;12042;52.136;5.584;2023-02-01T18:28:41;7.20;99.90
23723;DHT22;12042;52.136;5.584;2023-02-01T18:31:27;7.10;99.90
23723;DHT22;12042;52.136;5.584;2023-02-01T18:33:59;7.00;99.90
23723;DHT22;12042;52.136;5.584;2023-02-01T18:36:26;6.90;99.90
23723;DHT22;12042;52.136;5.584;2023-02-01T18:38:52;6.90;99.90
23723;DHT22;12042;52.136;5.584;2023-02-01T18:41:22;6.90;99.90
23723;DHT22;12042;52.136;5.584;2023-02-01T18:43:50;6.80;99.90
23723;DHT22;12042;52.136;5.584;2023-02-01T18:46:16;6.80;99.90
23723;DHT22;12042;52.136;5.584;2023-02-01T18:48:42;6.80;99.90
23723;DHT22;12042;52.136;5.584;2023-02-01T18:51:13;6.80;99.90
23723;DHT22;12042;52.136;5.584;2023-02-01T18:53:41;6.70;99.90
23723;DHT22;12042;52.136;5.584;2023-02-01T18:56:10;6.80;99.90
23723;DHT22;12042;52.136;5.584;2023-02-01T18:58:36;6.80;99.90
23723;DHT22;12042;52.136;5.584;2023-02-01T19:01:07;6.80;99.90
23723;DHT22;12042;52.136;5.584;2023-02-01T19:03:34;6.80;99.90
23723;DHT22;12042;52.136;5.584;2023-02-01T19:06:03;6.80;99.90
23723;DHT22;12042;52.136;5.584;2023-02-01T19:08:29;6.90;99.90
23723;DHT22;12042;52.136;5.584;2023-02-01T19:10:54;6.90;99.90
23723;DHT22;12042;52.136;5.584;2023-02-01T19:13:20;6.90;99.90
23723;DHT22;12042;52.136;5.584;2023-02-01T19:15:49;6.90;99.90
23723;DHT22;12042;52.136;5.584;2023-02-01T19:18:15;6.80;99.90
23723;DHT22;12042;52.136;5.584;2023-02-01T19:20:45;6.80;99.90
23723;DHT22;12042;52.136;5.584;2023-02-01T19:23:12;6.80;99.90
23723;DHT22;12042;52.136;5.584;2023-02-01T19:25:42;6.80;99.90
23723;DHT22;12042;52.136;5.584;2023-02-01T19:28:08;6.90;99.90
23723;DHT22;12042;52.136;5.584;2023-02-01T19:30:34;6.90;99.90
23723;DHT22;12042;52.136;5.584;2023-02-01T19:32:59;7.00;99.90
23723;DHT22;12042;52.136;5.584;2023-02-01T19:35:27;7.00;99.90
23723;DHT22;12042;52.136;5.584;2023-02-01T19:37:59;7.00;99.90
23723;DHT22;12042;52.136;5.584;2023-02-01T19:40:25;7.10;99.90
23723;DHT22;12042;52.136;5.584;2023-02-01T19:42:54;7.10;99.90
23723;DHT22;12042;52.136;5.584;2023-02-01T19:45:20;7.30;99.90
23723;DHT22;12042;52.136;5.584;2023-02-01T19:47:46;7.40;99.90
23723;DHT22;12042;52.136;5.584;2023-02-01T19:50:17;7.50;99.90
23723;DHT22;12042;52.136;5.584;2023-02-01T19:52:43;7.60;99.90
23723;DHT22;12042;52.136;5.584;2023-02-01T19:55:10;7.80;99.90
23723;DHT22;12042;52.136;5.584;2023-02-01T19:57:38;7.90;99.90
23723;DHT22;12042;52.136;5.584;2023-02-01T20:00:05;8.00;99.90
23723;DHT22;12042;52.136;5.584;2023-02-01T20:02:33;8.00;99.90
23723;DHT22;12042;52.136;5.584;2023-02-01T20:04:58;8.10;99.90
23723;DHT22;12042;52.136;5.584;2023-02-01T20:07:24;8.10;99.90
23723;DHT22;12042;52.136;5.584;2023-02-01T20:09:50;8.20;99.90
23723;DHT22;12042;52.136;5.584;2023-02-01T20:12:15;8.20;99.90
23723;DHT22;12042;52.136;5.584;2023-02-01T20:14:41;8.20;99.90
23723;DHT22;12042;52.136;5.584;2023-02-01T20:17:07;8.20;99.90
23723;DHT22;12042;52.136;5.584;2023-02-01T20:19:33;8.30;99.90
23723;DHT22;12042;52.136;5.584;2023-02-01T20:22:00;8.30;99.90
23723;DHT22;12042;52.136;5.584;2023-02-01T20:24:26;8.30;99.90
23723;DHT22;12042;52.136;5.584;2023-02-01T20:26:53;8.30;99.90
23723;DHT22;12042;52.136;5.584;2023-02-01T20:29:21;8.30;99.90
23723;DHT22;12042;52.136;5.584;2023-02-01T20:31:47;8.40;99.90
23723;DHT22;12042;52.136;5.584;2023-02-01T20:34:12;8.30;99.90
23723;DHT22;12042;52.136;5.584;2023-02-01T20:36:38;8.30;99.90
23723;DHT22;12042;52.136;5.584;2023-02-01T20:39:04;8.40;99.90
23723;DHT22;12042;52.136;5.584;2023-02-01T20:41:30;8.40;99.90
23723;DHT22;12042;52.136;5.584;2023-02-01T20:43:56;8.40;99.90
23723;DHT22;12042;52.136;5.584;2023-02-01T20:46:23;8.40;99.90
23723;DHT22;12042;52.136;5.584;2023-02-01T20:48:49;8.40;99.90
23723;DHT22;12042;52.136;5.584;2023-02-01T20:51:17;8.50;99.90
23723;DHT22;12042;52.136;5.584;2023-02-01T20:53:43;8.40;99.90
23723;DHT22;12042;52.136;5.584;2023-02-01T20:56:11;8.40;99.90
23723;DHT22;12042;52.136;5.584;2023-02-01T20:58:37;8.40;99.90
23723;DHT22;12042;52.136;5.584;2023-02-01T21:01:03;8.40;99.90
23723;DHT22;12042;52.136;5.584;2023-02-01T21:03:29;8.50;99.90
23723;DHT22;12042;52.136;5.584;2023-02-01T21:05:58;8.50;99.90
23723;DHT22;12042;52.136;5.584;2023-02-01T21:08:25;8.50;99.90
23723;DHT22;12042;52.136;5.584;2023-02-01T21:11:05;8.60;99.90
23723;DHT22;12042;52.136;5.584;2023-02-01T21:13:34;8.60;99.90
23723;DHT22;12042;52.136;5.584;2023-02-01T21:16:02;8.60;99.90
23723;DHT22;12042;52.136;5.584;2023-02-01T21:18:28;8.60;99.90
23723;DHT22;12042;52.136;5.584;2023-02-01T21:20:53;8.50;99.90
23723;DHT22;12042;52.136;5.584;2023-02-01T21:23:19;8.60;99.90
23723;DHT22;12042;52.136;5.584;2023-02-01T21:25:45;8.60;99.90
23723;DHT22;12042;52.136;5.584;2023-02-01T21:28:11;8.60;99.90
23723;DHT22;12042;52.136;5.584;2023-02-01T21:30:37;8.60;99.90
23723;DHT22;12042;52.136;5.584;2023-02-01T21:33:04;8.60;99.90
23723;DHT22;12042;52.136;5.584;2023-02-01T21:35:30;8.60;99.90
23723;DHT22;12042;52.136;5.584;2023-02-01T21:37:56;8.60;99.90
23723;DHT22;12042;52.136;5.584;2023-02-01T21:40:21;8.60;99.90
23723;DHT22;12042;52.136;5.584;2023-02-01T21:42:47;8.60;99.90
23723;DHT22;12042;52.136;5.584;2023-02-01T21:45:14;8.60;99.90
23723;DHT22;12042;52.136;5.584;2023-02-01T21:47:40;8.70;99.90
23723;DHT22;12042;52.136;5.584;2023-02-01T21:50:13;8.60;99.90
23723;DHT22;12042;52.136;5.584;2023-02-01T21:52:42;8.60;99.90
23723;DHT22;12042;52.136;5.584;2023-02-01T21:55:08;8.60;99.90
23723;DHT22;12042;52.136;5.584;2023-02-01T21:57:34;8.60;99.90
23723;DHT22;12042;52.136;5.584;2023-02-01T22:00:00;8.60;99.90
23723;DHT22;12042;52.136;5.584;2023-02-01T22:02:26;8.60;99.90
23723;DHT22;12042;52.136;5.584;2023-02-01T22:04:52;8.60;99.90
23723;DHT22;12042;52.136;5.584;2023-02-01T22:07:18;8.60;99.90
